NR40 weather

Als Airport
Bethel, North Carolina, United States

Public forecast

Using degrees Fahrenheit for public forecast. Weather courtesy of forecast.io.

METAR (pilot weather report)

Closest report is Tarboro Edgecombe Airport, 10.7 nm (19.9 km) NW. Retrieved 2019/06/17 10:40 UTC (0 seconds ago):

KETC 171040Z AUTO 20003KT 10SM CLR 22/20 A3003 RMK AO2 PWINO T02200195

TAF (pilot weather forecast)

Closest forecast is Pitt Greenville Airport, 11.1 nm (20.6 km) S. Retrieved 2019/06/17 06:27 UTC (4 hours ago):

TAF KPGV 170524Z 1706/1806 21010KT P6SM FEW250 FM171800 21010G15KT P6SM SCT050 FM180000 20010KT P6SM FEW250 AMD LTD TO CLD VIS AND WIND